createdAt,value
2023-01-11T00:00:14.497Z,9.719301
2023-01-11T00:01:14.484Z,9.719304
2023-01-11T00:02:14.500Z,9.719274
2023-01-11T00:03:14.464Z,9.719179
2023-01-11T00:04:14.508Z,9.719208
2023-01-11T00:05:14.486Z,9.719390
2023-01-11T00:06:14.459Z,9.719448
2023-01-11T00:07:14.449Z,9.719390
2023-01-11T00:08:14.410Z,9.719313
2023-01-11T00:09:14.404Z,9.719301
2023-01-11T00:10:14.403Z,9.719409
2023-01-11T00:11:14.396Z,9.719327
2023-01-11T00:12:14.429Z,9.719316
2023-01-11T00:13:14.372Z,9.719240
2023-01-11T00:14:14.348Z,9.719336
2023-01-11T00:15:14.352Z,9.719229
2023-01-11T00:16:14.422Z,9.719323
2023-01-11T00:17:14.408Z,9.719391
2023-01-11T00:18:14.328Z,9.719361
2023-01-11T00:19:14.321Z,9.719298
2023-01-11T00:20:14.308Z,9.719296
2023-01-11T00:21:14.282Z,9.719352
2023-01-11T00:22:14.279Z,9.719366
2023-01-11T00:23:17.361Z,9.719393
2023-01-11T00:24:14.276Z,9.719363
2023-01-11T00:25:14.248Z,9.719406
2023-01-11T00:26:14.245Z,9.719362
2023-01-11T00:27:14.234Z,9.719350
2023-01-11T00:28:14.249Z,9.719360
2023-01-11T00:29:14.225Z,9.719295
2023-01-11T00:30:14.543Z,9.719283
2023-01-11T00:31:14.283Z,9.719334
2023-01-11T00:32:14.192Z,9.719308
2023-01-11T00:33:14.213Z,9.719247
2023-01-11T00:34:14.166Z,9.719354
2023-01-11T00:35:14.195Z,9.719371
2023-01-11T00:36:14.149Z,9.719429
2023-01-11T00:37:14.142Z,9.719361
2023-01-11T00:38:14.133Z,9.719397
2023-01-11T00:39:14.136Z,9.719341
2023-01-11T00:40:14.163Z,9.719383
2023-01-11T00:41:14.126Z,9.719395
2023-01-11T00:42:14.105Z,9.719432
2023-01-11T00:43:14.072Z,9.719375
2023-01-11T00:44:14.108Z,9.719518
2023-01-11T00:45:14.070Z,9.719237
2023-01-11T00:46:14.117Z,9.719248
2023-01-11T00:47:14.047Z,9.719206
2023-01-11T00:48:14.039Z,9.719730
2023-01-11T00:49:14.051Z,9.719604
2023-01-11T00:50:14.019Z,9.719393
2023-01-11T00:51:13.991Z,9.719531
2023-01-11T00:52:13.986Z,9.719162
2023-01-11T00:53:13.993Z,9.719235
2023-01-11T00:54:13.971Z,9.719285
2023-01-11T00:55:14.004Z,9.719318
2023-01-11T00:56:13.956Z,9.719321
2023-01-11T00:57:13.949Z,9.718918
2023-01-11T00:58:13.935Z,9.719214
2023-01-11T00:59:13.994Z,9.719514
2023-01-11T01:00:13.929Z,9.719848
2023-01-11T01:01:13.920Z,9.719544
2023-01-11T01:02:13.920Z,9.719612
2023-01-11T01:03:13.926Z,9.719582
2023-01-11T01:04:13.905Z,9.719138
2023-01-11T01:05:13.879Z,9.719021
2023-01-11T01:06:13.860Z,9.718826
2023-01-11T01:07:13.880Z,9.718794
2023-01-11T01:08:13.875Z,9.719357
2023-01-11T01:09:13.837Z,9.719352
2023-01-11T01:10:13.850Z,9.719725
2023-01-11T01:11:13.811Z,9.719558
2023-01-11T01:12:13.830Z,9.719697
2023-01-11T01:13:13.817Z,9.719254
2023-01-11T01:14:13.822Z,9.719275
2023-01-11T01:15:13.792Z,9.719310
2023-01-11T01:16:13.795Z,9.719382
2023-01-11T01:17:13.763Z,9.719367
2023-01-11T01:18:13.765Z,9.719346
2023-01-11T01:19:13.752Z,9.719313
2023-01-11T01:20:13.770Z,9.719306
2023-01-11T01:21:13.725Z,9.719329
2023-01-11T01:22:13.717Z,9.719208
2023-01-11T01:23:13.692Z,9.719114
2023-01-11T01:24:13.713Z,9.719159
2023-01-11T01:25:13.670Z,9.719269
2023-01-11T01:26:13.650Z,9.719105
2023-01-11T01:27:13.659Z,9.718985
2023-01-11T01:28:13.653Z,9.719214
2023-01-11T01:29:13.643Z,9.719378
2023-01-11T01:30:13.643Z,9.719244
2023-01-11T01:31:13.678Z,9.719316
2023-01-11T01:32:13.604Z,9.719254
2023-01-11T01:33:45.473Z,9.719103
2023-01-11T01:34:13.570Z,9.719131
2023-01-11T01:35:13.565Z,9.719306
2023-01-11T01:36:13.540Z,9.719326
2023-01-11T01:37:13.546Z,9.719254
2023-01-11T01:38:13.530Z,9.719163
2023-01-11T01:39:13.517Z,9.719045
2023-01-11T01:40:13.508Z,9.719158
2023-01-11T01:41:13.489Z,9.719257
2023-01-11T01:42:13.500Z,9.719275
2023-01-11T01:43:13.469Z,9.719298
2023-01-11T01:44:13.464Z,9.719299
2023-01-11T01:45:13.472Z,9.719200
2023-01-11T01:46:13.494Z,9.719122
2023-01-11T01:47:13.422Z,9.718959
2023-01-11T01:48:13.424Z,9.718783
2023-01-11T01:49:13.411Z,9.718930
2023-01-11T01:50:13.421Z,9.719028
2023-01-11T01:51:13.416Z,9.719210
2023-01-11T01:52:13.425Z,9.719260
2023-01-11T01:53:13.375Z,9.719167
2023-01-11T01:54:13.355Z,9.719151
2023-01-11T01:55:13.355Z,9.719232
2023-01-11T01:56:13.353Z,9.719175
2023-01-11T01:57:13.364Z,9.719110
2023-01-11T01:58:13.357Z,9.719152
2023-01-11T01:59:13.339Z,9.719021
2023-01-11T02:00:13.298Z,9.719090
2023-01-11T02:01:13.293Z,9.719187
2023-01-11T02:02:13.341Z,9.719205
2023-01-11T02:03:13.318Z,9.719043
2023-01-11T02:04:13.279Z,9.719159
2023-01-11T02:05:13.249Z,9.719177
2023-01-11T02:06:13.234Z,9.719227
2023-01-11T02:07:13.231Z,9.718849
2023-01-11T02:08:13.234Z,9.719062
2023-01-11T02:09:13.220Z,9.718992
2023-01-11T02:10:13.274Z,9.719099
2023-01-11T02:11:13.197Z,9.719262
2023-01-11T02:12:13.185Z,9.719228
2023-01-11T02:13:13.182Z,9.719209
2023-01-11T02:14:13.178Z,9.719181
2023-01-11T02:15:13.193Z,9.719205
2023-01-11T02:16:13.187Z,9.719175
2023-01-11T02:17:13.148Z,9.719216
2023-01-11T02:18:13.127Z,9.719284
2023-01-11T02:19:13.124Z,9.719318
2023-01-11T02:20:13.127Z,9.719360
2023-01-11T02:21:13.122Z,9.719209
2023-01-11T02:22:13.104Z,9.719105
2023-01-11T02:23:13.084Z,9.719139
2023-01-11T02:24:13.084Z,9.719089
2023-01-11T02:25:13.087Z,9.719199
2023-01-11T02:26:13.060Z,9.719234
2023-01-11T02:27:13.049Z,9.719133
2023-01-11T02:28:13.041Z,9.719205
2023-01-11T02:29:13.033Z,9.719195
2023-01-11T02:30:13.018Z,9.719085
2023-01-11T02:31:13.070Z,9.719102
2023-01-11T02:32:12.985Z,9.719181
2023-01-11T02:33:12.976Z,9.719131
2023-01-11T02:34:12.971Z,9.719202
2023-01-11T02:35:12.990Z,9.719167
2023-01-11T02:36:12.961Z,9.719178
2023-01-11T02:37:12.955Z,9.719116
2023-01-11T02:38:12.930Z,9.719136
2023-01-11T02:39:12.934Z,9.719136
2023-01-11T02:40:12.960Z,9.719159
2023-01-11T02:41:12.908Z,9.719119
2023-01-11T02:42:12.912Z,9.719157
2023-01-11T02:43:12.879Z,9.719129
2023-01-11T02:44:12.879Z,9.719164
2023-01-11T02:45:12.870Z,9.719163
2023-01-11T02:46:12.898Z,9.719097
2023-01-11T02:47:12.863Z,9.719135
2023-01-11T02:48:12.858Z,9.719154
2023-01-11T02:49:12.817Z,9.719107
2023-01-11T02:50:12.819Z,9.719046
2023-01-11T02:51:12.814Z,9.719083
2023-01-11T02:52:12.831Z,9.719146
2023-01-11T02:53:12.788Z,9.719156
2023-01-11T02:54:12.787Z,9.719131
2023-01-11T02:55:12.774Z,9.719184
2023-01-11T02:56:12.773Z,9.719183
2023-01-11T02:57:12.773Z,9.719287
2023-01-11T02:58:12.764Z,9.719033
2023-01-11T02:59:12.754Z,9.719119
2023-01-11T03:00:12.721Z,9.719156
2023-01-11T03:01:12.719Z,9.719225
2023-01-11T03:02:12.724Z,9.719168
2023-01-11T03:03:12.724Z,9.719136
2023-01-11T03:04:12.685Z,9.719157
2023-01-11T03:05:12.711Z,9.719200
2023-01-11T03:06:12.675Z,9.719195
2023-01-11T03:07:12.691Z,9.719220
2023-01-11T03:08:12.654Z,9.719247
2023-01-11T03:09:12.637Z,9.719192
2023-01-11T03:10:12.625Z,9.719273
2023-01-11T03:11:12.644Z,9.719138
2023-01-11T03:12:12.612Z,9.719146
2023-01-11T03:13:12.595Z,9.719160
2023-01-11T03:14:12.597Z,9.719209
2023-01-11T03:15:12.584Z,9.719390
2023-01-11T03:16:12.667Z,9.719176
2023-01-11T03:17:12.580Z,9.719053
2023-01-11T03:18:12.571Z,9.719223
2023-01-11T03:19:12.553Z,9.719064
2023-01-11T03:20:12.543Z,9.719015
2023-01-11T03:21:12.530Z,9.719296
2023-01-11T03:22:12.502Z,9.719187
2023-01-11T03:23:13.528Z,9.719123
2023-01-11T03:24:12.493Z,9.719009
2023-01-11T03:25:12.482Z,9.719095
2023-01-11T03:26:12.470Z,9.719062
2023-01-11T03:27:12.518Z,9.719051
2023-01-11T03:28:12.479Z,9.719014
2023-01-11T03:29:12.449Z,9.719087
2023-01-11T03:30:12.428Z,9.719114
2023-01-11T03:31:12.540Z,9.719283
2023-01-11T03:32:12.442Z,9.719318
2023-01-11T03:33:12.408Z,9.719254
2023-01-11T03:34:12.391Z,9.718996
2023-01-11T03:35:12.396Z,9.719047
2023-01-11T03:36:12.400Z,9.719176
2023-01-11T03:37:12.386Z,9.719257
2023-01-11T03:38:12.358Z,9.719169
2023-01-11T03:39:12.357Z,9.719116
2023-01-11T03:40:12.336Z,9.719233
2023-01-11T03:41:12.345Z,9.719266
2023-01-11T03:42:12.337Z,9.719306
2023-01-11T03:43:12.335Z,9.719327
2023-01-11T03:44:12.318Z,9.719231
2023-01-11T03:45:12.279Z,9.719162
2023-01-11T03:46:12.306Z,9.719110
2023-01-11T03:47:12.271Z,9.719208
2023-01-11T03:48:12.265Z,9.719296
2023-01-11T03:49:12.278Z,9.719323
2023-01-11T03:50:12.247Z,9.719260
2023-01-11T03:51:12.246Z,9.719265
2023-01-11T03:52:12.250Z,9.719194
2023-01-11T03:53:12.217Z,9.719087
2023-01-11T03:54:12.249Z,9.719072
2023-01-11T03:55:12.199Z,9.719058
2023-01-11T03:56:12.236Z,9.719103
2023-01-11T03:57:12.179Z,9.719067
2023-01-11T03:58:12.160Z,9.718917
2023-01-11T03:59:12.153Z,9.718978
2023-01-11T04:00:12.157Z,9.719201
2023-01-11T04:01:12.223Z,9.719136
2023-01-11T04:02:12.127Z,9.719247
2023-01-11T04:03:12.115Z,9.719172
2023-01-11T04:04:12.119Z,9.719172
2023-01-11T04:05:12.093Z,9.719254
2023-01-11T04:06:12.101Z,9.719293
2023-01-11T04:07:12.101Z,9.719370
2023-01-11T04:08:12.072Z,9.719398
2023-01-11T04:09:12.063Z,9.719262
2023-01-11T04:10:12.062Z,9.719176
2023-01-11T04:11:12.040Z,9.719260
2023-01-11T04:12:12.062Z,9.719176
2023-01-11T04:13:12.035Z,9.719256
2023-01-11T04:14:12.062Z,9.719243
2023-01-11T04:15:12.007Z,9.719266
2023-01-11T04:16:12.057Z,9.719257
2023-01-11T04:17:11.991Z,9.719347
2023-01-11T04:18:11.983Z,9.719389
2023-01-11T04:19:11.981Z,9.719296
2023-01-11T04:20:11.965Z,9.719284
2023-01-11T04:21:11.956Z,9.719452
2023-01-11T04:22:11.945Z,9.719412
2023-01-11T04:23:11.934Z,9.719412
2023-01-11T04:24:11.941Z,9.719328
2023-01-11T04:25:11.940Z,9.719180
2023-01-11T04:26:11.901Z,9.719180
2023-01-11T04:27:11.890Z,9.719255
2023-01-11T04:28:11.878Z,9.719019
2023-01-11T04:29:11.880Z,9.719244
2023-01-11T04:30:11.895Z,9.719435
2023-01-11T04:31:11.914Z,9.719252
2023-01-11T04:32:11.828Z,9.719243
2023-01-11T04:33:11.834Z,9.719178
2023-01-11T04:34:11.857Z,9.719124
2023-01-11T04:35:11.829Z,9.719172
2023-01-11T04:36:11.815Z,9.719199
2023-01-11T04:37:11.816Z,9.719184
2023-01-11T04:38:11.808Z,9.719164
2023-01-11T04:39:11.785Z,9.719103
2023-01-11T04:40:11.784Z,9.719128
2023-01-11T04:41:11.748Z,9.719110
2023-01-11T04:42:11.738Z,9.719156
2023-01-11T04:43:11.732Z,9.719173
2023-01-11T04:44:11.724Z,9.719134
2023-01-11T04:45:11.733Z,9.719122
2023-01-11T04:46:11.720Z,9.719154
2023-01-11T04:47:11.693Z,9.719179
2023-01-11T04:48:11.701Z,9.719161
2023-01-11T04:49:11.701Z,9.719232
2023-01-11T04:50:11.727Z,9.719238
2023-01-11T04:51:11.669Z,9.719215
2023-01-11T04:52:11.657Z,9.719237
2023-01-11T04:53:11.662Z,9.719205
2023-01-11T04:54:11.653Z,9.719230
2023-01-11T04:55:11.622Z,9.719171
2023-01-11T04:56:11.599Z,9.719146
2023-01-11T04:57:11.613Z,9.719113
2023-01-11T04:58:11.606Z,9.719171
2023-01-11T04:59:11.601Z,9.719185
2023-01-11T05:00:11.570Z,9.719243
2023-01-11T05:01:11.621Z,9.719224
2023-01-11T05:02:11.555Z,9.719137
2023-01-11T05:03:11.533Z,9.719169
2023-01-11T05:04:13.484Z,9.719334
2023-01-11T05:05:12.556Z,9.719180
2023-01-11T05:06:11.511Z,9.719037
2023-01-11T05:07:11.501Z,9.719028
2023-01-11T05:08:11.506Z,9.719142
2023-01-11T05:09:11.484Z,9.719104
2023-01-11T05:10:11.493Z,9.719151
2023-01-11T05:11:11.469Z,9.719227
2023-01-11T05:12:11.450Z,9.719134
2023-01-11T05:13:11.440Z,9.719088
2023-01-11T05:14:11.448Z,9.719055
2023-01-11T05:15:11.443Z,9.719167
2023-01-11T05:16:11.427Z,9.719025
2023-01-11T05:17:11.416Z,9.718955
2023-01-11T05:18:11.389Z,9.719090
2023-01-11T05:19:11.379Z,9.719052
2023-01-11T05:20:11.380Z,9.719073
2023-01-11T05:21:11.361Z,9.719057
2023-01-11T05:22:11.356Z,9.719081
2023-01-11T05:23:11.335Z,9.719144
2023-01-11T05:24:11.354Z,9.719049
2023-01-11T05:25:11.353Z,9.719168
2023-01-11T05:26:11.308Z,9.719079
2023-01-11T05:27:11.366Z,9.718937
2023-01-11T05:28:11.303Z,9.719001
2023-01-11T05:29:11.283Z,9.718823
2023-01-11T05:30:11.257Z,9.718876
2023-01-11T05:31:11.262Z,9.718819
2023-01-11T05:32:11.285Z,9.719015
2023-01-11T05:33:11.262Z,9.718992
2023-01-11T05:34:11.235Z,9.718984
2023-01-11T05:35:11.210Z,9.718880
2023-01-11T05:36:11.239Z,9.719024
2023-01-11T05:37:11.235Z,9.718883
2023-01-11T05:38:11.213Z,9.718937
2023-01-11T05:39:11.182Z,9.718902
2023-01-11T05:40:11.174Z,9.718927
2023-01-11T05:41:11.183Z,9.718907
2023-01-11T05:42:11.166Z,9.718930
2023-01-11T05:43:11.176Z,9.718932
2023-01-11T05:44:11.137Z,9.718998
2023-01-11T05:45:11.124Z,9.719108
2023-01-11T05:46:12.193Z,9.719163
2023-01-11T05:47:11.121Z,9.719069
2023-01-11T05:48:11.104Z,9.719102
2023-01-11T05:49:11.095Z,9.719116
2023-01-11T05:50:11.073Z,9.719214
2023-01-11T05:51:11.078Z,9.719151
2023-01-11T05:52:11.086Z,9.719073
2023-01-11T05:53:11.052Z,9.719058
2023-01-11T05:54:11.069Z,9.719004
2023-01-11T05:55:11.024Z,9.718982
2023-01-11T05:56:12.029Z,9.719045
2023-01-11T05:57:11.009Z,9.718950
2023-01-11T05:58:11.011Z,9.719121
2023-01-11T05:59:11.007Z,9.719069
2023-01-11T06:00:11.008Z,9.719111
2023-01-11T06:01:11.001Z,9.719076
2023-01-11T06:02:11.080Z,9.719112
2023-01-11T06:03:11.011Z,9.719222
2023-01-11T06:04:10.948Z,9.719221
2023-01-11T06:05:10.985Z,9.719186
2023-01-11T06:06:10.928Z,9.719176
2023-01-11T06:07:10.930Z,9.719129
2023-01-11T06:08:10.923Z,9.719111
2023-01-11T06:09:10.909Z,9.719224
2023-01-11T06:10:10.897Z,9.719235
2023-01-11T06:11:10.881Z,9.719346
2023-01-11T06:12:10.861Z,9.719504
2023-01-11T06:13:10.868Z,9.719401
2023-01-11T06:14:10.869Z,9.719318
2023-01-11T06:15:10.841Z,9.719134
2023-01-11T06:16:10.840Z,9.719177
2023-01-11T06:17:10.817Z,9.719315
2023-01-11T06:18:10.809Z,9.719358
2023-01-11T06:19:10.822Z,9.719361
2023-01-11T06:20:10.777Z,9.719382
2023-01-11T06:21:10.775Z,9.719457
2023-01-11T06:22:11.791Z,9.719417
2023-01-11T06:23:10.751Z,9.719480
2023-01-11T06:24:10.784Z,9.719345
2023-01-11T06:25:10.780Z,9.719241
2023-01-11T06:26:10.754Z,9.719435
2023-01-11T06:27:10.719Z,9.719633
2023-01-11T06:28:10.719Z,9.719617
2023-01-11T06:29:10.694Z,9.719805
2023-01-11T06:30:10.681Z,9.719753
2023-01-11T06:31:10.743Z,9.719573
2023-01-11T06:32:10.695Z,9.719560
2023-01-11T06:33:10.663Z,9.719167
2023-01-11T06:34:10.641Z,9.719114
2023-01-11T06:35:10.655Z,9.719066
2023-01-11T06:36:10.649Z,9.719251
2023-01-11T06:37:10.653Z,9.719185
2023-01-11T06:38:10.594Z,9.719202
2023-01-11T06:39:10.642Z,9.719165
2023-01-11T06:40:10.663Z,9.719258
2023-01-11T06:41:10.611Z,9.719064
2023-01-11T06:42:10.568Z,9.719177
2023-01-11T06:43:10.566Z,9.719227
2023-01-11T06:44:10.583Z,9.719144
2023-01-11T06:45:10.545Z,9.719062
2023-01-11T06:46:10.602Z,9.719166
2023-01-11T06:47:10.518Z,9.719180
2023-01-11T06:48:10.513Z,9.719227
2023-01-11T06:49:10.521Z,9.719063
2023-01-11T06:50:10.491Z,9.719054
2023-01-11T06:51:10.500Z,9.719353
2023-01-11T06:52:10.490Z,9.719209
2023-01-11T06:53:10.466Z,9.719284
2023-01-11T06:54:10.454Z,9.719267
2023-01-11T06:55:10.450Z,9.719210
2023-01-11T06:56:10.439Z,9.719380
2023-01-11T06:57:10.459Z,9.719222
2023-01-11T06:58:10.414Z,9.719094
2023-01-11T06:59:10.423Z,9.719217
2023-01-11T07:00:10.402Z,9.719306
2023-01-11T07:01:10.473Z,9.719571
2023-01-11T07:02:10.409Z,9.719351
2023-01-11T07:03:10.370Z,9.719362
2023-01-11T07:04:10.357Z,9.719482
2023-01-11T07:05:10.361Z,9.719399
2023-01-11T07:06:10.357Z,9.719708
2023-01-11T07:07:10.350Z,9.719440
2023-01-11T07:08:10.308Z,9.719170
2023-01-11T07:09:10.303Z,9.719192
2023-01-11T07:10:10.293Z,9.719519
2023-01-11T07:11:10.377Z,9.719070
2023-01-11T07:12:10.331Z,9.719092
2023-01-11T07:13:10.268Z,9.719236
2023-01-11T07:14:10.259Z,9.719265
2023-01-11T07:15:10.270Z,9.719052
2023-01-11T07:16:10.382Z,9.718939
2023-01-11T07:17:10.246Z,9.719098
2023-01-11T07:18:10.229Z,9.719209
2023-01-11T07:19:10.236Z,9.719067
2023-01-11T07:20:10.199Z,9.719045
2023-01-11T07:21:10.230Z,9.719105
2023-01-11T07:22:10.182Z,9.718884
2023-01-11T07:23:10.183Z,9.719049
2023-01-11T07:24:10.167Z,9.719115
2023-01-11T07:25:10.165Z,9.719184
2023-01-11T07:26:10.172Z,9.719082
2023-01-11T07:27:10.161Z,9.719140
2023-01-11T07:28:10.127Z,9.719121
2023-01-11T07:29:10.115Z,9.719013
2023-01-11T07:30:10.143Z,9.719131
2023-01-11T07:31:10.166Z,9.719062
2023-01-11T07:32:10.123Z,9.719071
2023-01-11T07:33:10.085Z,9.719028
2023-01-11T07:34:41.968Z,9.719041
2023-01-11T07:35:10.066Z,9.719088
2023-01-11T07:36:10.064Z,9.719091
2023-01-11T07:37:29.146Z,9.719211
2023-01-11T07:38:11.068Z,9.719189
2023-01-11T07:39:10.023Z,9.719177
2023-01-11T07:40:10.019Z,9.719288
2023-01-11T07:41:10.005Z,9.719229
2023-01-11T07:42:10.986Z,9.719225
2023-01-11T07:43:10.016Z,9.719320
2023-01-11T07:44:09.985Z,9.719561
2023-01-11T07:45:09.969Z,9.719459
2023-01-11T07:46:09.996Z,9.719407
2023-01-11T07:47:09.977Z,9.719345
2023-01-11T07:48:09.940Z,9.719268
2023-01-11T07:49:09.946Z,9.719147
2023-01-11T07:50:09.912Z,9.719103
2023-01-11T07:51:09.940Z,9.719211
2023-01-11T07:52:09.912Z,9.719312
2023-01-11T07:53:09.884Z,9.719318
2023-01-11T07:54:09.874Z,9.719104
2023-01-11T07:55:09.895Z,9.719057
2023-01-11T07:56:09.880Z,9.719114
2023-01-11T07:57:09.839Z,9.719126
2023-01-11T07:58:09.871Z,9.719225
2023-01-11T07:59:09.857Z,9.719255
2023-01-11T08:00:09.815Z,9.719326
2023-01-11T08:01:10.804Z,9.719194
2023-01-11T08:02:09.813Z,9.719239
2023-01-11T08:03:10.028Z,9.719252
2023-01-11T08:04:09.778Z,9.719271
2023-01-11T08:05:09.768Z,9.719212
2023-01-11T08:06:09.770Z,9.719270
2023-01-11T08:07:09.766Z,9.719377
2023-01-11T08:08:09.725Z,9.719336
2023-01-11T08:09:09.713Z,9.719190
2023-01-11T08:10:09.707Z,9.719172
2023-01-11T08:11:09.717Z,9.719218
2023-01-11T08:12:09.695Z,9.719470
2023-01-11T08:13:09.732Z,9.719490
2023-01-11T08:14:09.676Z,9.719354
2023-01-11T08:15:09.675Z,9.719332
2023-01-11T08:16:09.706Z,9.719111
2023-01-11T08:17:09.676Z,9.719031
2023-01-11T08:18:09.676Z,9.719164
2023-01-11T08:19:09.645Z,9.719199
2023-01-11T08:20:09.626Z,9.719208
2023-01-11T08:21:09.614Z,9.719320
2023-01-11T08:22:10.600Z,9.719275
2023-01-11T08:23:09.618Z,9.719186
2023-01-11T08:24:09.604Z,9.719122
2023-01-11T08:25:09.583Z,9.719158
2023-01-11T08:26:09.604Z,9.719269
2023-01-11T08:27:09.616Z,9.719275
2023-01-11T08:28:09.543Z,9.719247
2023-01-11T08:29:10.555Z,9.719225
2023-01-11T08:30:09.538Z,9.719163
2023-01-11T08:31:09.606Z,9.719195
2023-01-11T08:32:09.536Z,9.719267
2023-01-11T08:33:09.516Z,9.719209
2023-01-11T08:34:09.474Z,9.719240
2023-01-11T08:35:09.469Z,9.719177
2023-01-11T08:36:10.198Z,9.719159
2023-01-11T08:37:09.472Z,9.719101
2023-01-11T08:38:09.494Z,9.719181
2023-01-11T08:39:09.446Z,9.719293
2023-01-11T08:40:09.448Z,9.719208
2023-01-11T08:41:09.415Z,9.719269
2023-01-11T08:42:09.425Z,9.719287
2023-01-11T08:43:09.383Z,9.719298
2023-01-11T08:44:09.378Z,9.719284
2023-01-11T08:45:09.388Z,9.719233
2023-01-11T08:46:09.458Z,9.719301
2023-01-11T08:47:09.378Z,9.719215
2023-01-11T08:48:09.342Z,9.719232
2023-01-11T08:49:09.342Z,9.719132
2023-01-11T08:50:09.319Z,9.719190
2023-01-11T08:51:09.320Z,9.719326
2023-01-11T08:52:09.329Z,9.719249
2023-01-11T08:53:10.933Z,9.719291
2023-01-11T08:54:09.274Z,9.719223
2023-01-11T08:55:09.280Z,9.719301
2023-01-11T08:56:09.277Z,9.719293
2023-01-11T08:57:09.251Z,9.719460
2023-01-11T08:58:09.274Z,9.719282
2023-01-11T08:59:09.226Z,9.719165
2023-01-11T09:00:09.229Z,9.719181
2023-01-11T09:01:09.220Z,9.719209
2023-01-11T09:02:09.211Z,9.719372
2023-01-11T09:03:09.218Z,9.719316
2023-01-11T09:04:19.406Z,9.719306
2023-01-11T09:05:11.175Z,9.719090
2023-01-11T09:06:09.240Z,9.719207
2023-01-11T09:07:09.147Z,9.719183
2023-01-11T09:08:09.163Z,9.719230
2023-01-11T09:09:09.143Z,9.719208
2023-01-11T09:10:09.121Z,9.719195
2023-01-11T09:11:09.136Z,9.719183
2023-01-11T09:12:09.116Z,9.719150
2023-01-11T09:13:09.090Z,9.719168
2023-01-11T09:14:09.077Z,9.719167
2023-01-11T09:15:09.082Z,9.719173
2023-01-11T09:16:09.134Z,9.719220
2023-01-11T09:17:09.057Z,9.719210
2023-01-11T09:18:09.058Z,9.719165
2023-01-11T09:19:09.048Z,9.719145
2023-01-11T09:20:09.032Z,9.719091
2023-01-11T09:21:09.023Z,9.719172
2023-01-11T09:22:09.019Z,9.719206
2023-01-11T09:23:10.014Z,9.719153
2023-01-11T09:24:08.978Z,9.719172
2023-01-11T09:25:08.976Z,9.719169
2023-01-11T09:26:08.972Z,9.719173
2023-01-11T09:27:09.062Z,9.719230
2023-01-11T09:28:08.978Z,9.719211
2023-01-11T09:29:08.986Z,9.719201
2023-01-11T09:30:08.931Z,9.719164
2023-01-11T09:31:08.992Z,9.719153
2023-01-11T09:32:08.900Z,9.719137
2023-01-11T09:33:08.899Z,9.719115
2023-01-11T09:34:08.889Z,9.719154
2023-01-11T09:35:08.882Z,9.719190
2023-01-11T09:36:08.916Z,9.719146
2023-01-11T09:37:08.870Z,9.719156
2023-01-11T09:38:08.857Z,9.719189
2023-01-11T09:39:08.843Z,9.719147
2023-01-11T09:40:08.828Z,9.719145
2023-01-11T09:41:08.817Z,9.719146
2023-01-11T09:42:08.853Z,9.719157
2023-01-11T09:43:08.804Z,9.719144
2023-01-11T09:44:08.807Z,9.719117
2023-01-11T09:45:08.807Z,9.719167
2023-01-11T09:46:08.886Z,9.719115
2023-01-11T09:47:09.807Z,9.719125
2023-01-11T09:48:08.750Z,9.719170
2023-01-11T09:49:08.756Z,9.719105
2023-01-11T09:50:08.744Z,9.719144
2023-01-11T09:51:08.727Z,9.719184
2023-01-11T09:52:08.719Z,9.719163
2023-01-11T09:53:08.703Z,9.719252
2023-01-11T09:54:08.708Z,9.719144
2023-01-11T09:55:08.672Z,9.719142
2023-01-11T09:56:08.692Z,9.719222
2023-01-11T09:57:08.669Z,9.719167
2023-01-11T09:58:08.650Z,9.719159
2023-01-11T09:59:08.664Z,9.719095
2023-01-11T10:00:08.679Z,9.719086
2023-01-11T10:01:08.683Z,9.719069
2023-01-11T10:02:08.609Z,9.719104
2023-01-11T10:03:08.615Z,9.719115
2023-01-11T10:04:08.631Z,9.719144
2023-01-11T10:05:08.636Z,9.719221
2023-01-11T10:06:08.594Z,9.719194
2023-01-11T10:07:08.587Z,9.719295
2023-01-11T10:18:23.318Z,9.719437
2023-01-11T10:18:28.618Z,9.719346
2023-01-11T10:18:29.665Z,9.719180
2023-01-11T10:18:33.480Z,9.719118
2023-01-11T10:18:35.339Z,9.719450
2023-01-11T10:19:33.510Z,9.719182
2023-01-11T10:20:10.514Z,9.719152
2023-01-11T10:21:08.422Z,9.719144
2023-01-11T10:22:08.418Z,9.719107
2023-01-11T10:23:08.453Z,9.719179
2023-01-11T10:24:08.398Z,9.719141
2023-01-11T10:25:09.140Z,9.719145
2023-01-11T10:26:08.395Z,9.719215
2023-01-11T10:27:08.535Z,9.719243
2023-01-11T10:28:08.392Z,9.719169
2023-01-11T10:29:08.352Z,9.719173
2023-01-11T10:30:08.341Z,9.719275
2023-01-11T10:31:08.482Z,9.719218
2023-01-11T10:32:08.351Z,9.719206
2023-01-11T10:33:08.314Z,9.719197
2023-01-11T10:34:08.300Z,9.719133
2023-01-11T10:35:08.301Z,9.719177
2023-01-11T10:36:08.292Z,9.719273
2023-01-11T10:37:08.287Z,9.719231
2023-01-11T10:38:08.263Z,9.719075
2023-01-11T10:39:08.255Z,9.719185
2023-01-11T10:40:08.259Z,9.719195
2023-01-11T10:41:08.292Z,9.719176
2023-01-11T10:42:08.227Z,9.719334
2023-01-11T10:43:08.230Z,9.719268
2023-01-11T10:44:08.200Z,9.719328
2023-01-11T10:45:08.204Z,9.719337
2023-01-11T10:46:08.234Z,9.719310
2023-01-11T10:47:08.177Z,9.719276
2023-01-11T10:48:08.176Z,9.719296
2023-01-11T10:49:08.194Z,9.719317
2023-01-11T10:50:08.134Z,9.719378
2023-01-11T10:51:08.139Z,9.719384
2023-01-11T10:52:08.129Z,9.719325
2023-01-11T10:53:08.132Z,9.719337
2023-01-11T10:54:08.121Z,9.719229
2023-01-11T10:55:08.105Z,9.719290
2023-01-11T10:56:08.091Z,9.719317
2023-01-11T10:57:08.215Z,9.719296
2023-01-11T10:58:09.068Z,9.719310
2023-01-11T10:59:08.067Z,9.719339
2023-01-11T11:00:08.035Z,9.719362
2023-01-11T11:01:08.139Z,9.719399
2023-01-11T11:02:08.089Z,9.719275
2023-01-11T11:03:08.037Z,9.719358
2023-01-11T11:04:08.039Z,9.719365
2023-01-11T11:05:08.003Z,9.719351
2023-01-11T11:06:07.995Z,9.719394
2023-01-11T11:07:07.968Z,9.719282
2023-01-11T11:08:07.986Z,9.719296
2023-01-11T11:09:07.963Z,9.719278
2023-01-11T11:10:07.960Z,9.719145
2023-01-11T11:11:07.943Z,9.719234
2023-01-11T11:12:07.923Z,9.719215
2023-01-11T11:13:07.939Z,9.719185
2023-01-11T11:14:07.906Z,9.719355
2023-01-11T11:15:07.896Z,9.719379
2023-01-11T11:16:07.940Z,9.719464
2023-01-11T11:17:07.888Z,9.719269
2023-01-11T11:18:07.868Z,9.719319
2023-01-11T11:19:07.885Z,9.719342
2023-01-11T11:20:07.846Z,9.719286
2023-01-11T11:21:07.854Z,9.719318
2023-01-11T11:22:07.843Z,9.719219
2023-01-11T11:23:07.816Z,9.719169
2023-01-11T11:24:07.807Z,9.719021
2023-01-11T11:25:07.815Z,9.719243
2023-01-11T11:26:07.807Z,9.719181
2023-01-11T11:27:07.840Z,9.718989
2023-01-11T11:28:07.783Z,9.718863
2023-01-11T11:29:07.776Z,9.718892
2023-01-11T11:30:07.757Z,9.719181
2023-01-11T11:31:07.766Z,9.718998
2023-01-11T11:32:07.738Z,9.718976
2023-01-11T11:33:07.740Z,9.719250
2023-01-11T11:34:07.707Z,9.719059
2023-01-11T11:35:07.745Z,9.718759
2023-01-11T11:36:07.716Z,9.718770
2023-01-11T11:37:08.685Z,9.719064
2023-01-11T11:38:07.685Z,9.719117
2023-01-11T11:39:07.688Z,9.719308
2023-01-11T11:40:07.656Z,9.719006
2023-01-11T11:41:07.664Z,9.718996
2023-01-11T11:42:07.657Z,9.719219
2023-01-11T11:43:07.662Z,9.719174
2023-01-11T11:44:07.620Z,9.719245
2023-01-11T11:45:07.639Z,9.719097
2023-01-11T11:46:07.698Z,9.719123
2023-01-11T11:47:07.601Z,9.719255
2023-01-11T11:48:07.581Z,9.719031
2023-01-11T11:49:07.593Z,9.719029
2023-01-11T11:50:07.572Z,9.718912